Latest Weather Observations for Narrandera Airport

IDN60801

Issued at 5:32 pm EDT Saturday 25 February 2017 (issued every 30 minutes, with the page automatically refreshed every 10 minutes)

About weather observations | Map of weather stations | Latest weather observations for NSW | Other Formats
Station Details ID: 074148 Name: NARRANDERA AIRPORT AWS Lat: -34.70 Lon: 146.51 Height: 145.0 m
Data from the previous 72 hours. | See also: Recent months at Narrandera Airport
Date/Time
EDT
Temp
°C
App
Temp
°C
Dew
Point
°C
Rel
Hum
%
Delta-T
°C
Wind Press
QNH
hPa
Press
MSL
hPa
Rain since
9am
mm
Dir  Spd
km/h
Gust
km/h
Spd
kts
Gust
kts
25/05:30pm 31.6 29.6 8.6 24 12.9 S 9 20 5 11 1014.6 1013.8 0.0
25/05:00pm 31.8 28.8 9.3 25 12.8 SSW 15 20 8 11 1014.9 1014.1 0.0
25/04:30pm 31.6 29.6 10.3 27 12.3 W 11 17 6 9 1015.0 1014.2 0.0
25/04:00pm 31.6 29.9 9.8 26 12.4 ESE 9 15 5 8 1015.5 1014.7 0.0
25/03:30pm 31.5 29.8 9.7 26 12.4 SSW 9 19 5 10 1016.0 1015.2 0.0
25/03:00pm 30.6 28.6 10.0 28 11.7 SW 11 19 6 10 1016.5 1015.8 0.0
25/02:30pm 30.3 28.9 10.8 30 11.2 SSW 9 17 5 9 1016.8 1016.1 0.0
25/02:00pm 29.4 28.5 11.5 33 10.4 NE 7 22 4 12 1017.1 1016.4 0.0
25/01:30pm 28.6 27.4 11.6 34 9.9 SW 9 17 5 9 1017.5 1016.8 0.0
25/01:00pm 28.3 27.3 12.2 37 9.4 W 9 17 5 9 1017.8 1017.1 0.0
25/12:30pm 27.2 25.6 12.8 41 8.5 SW 13 19 7 10 1018.2 1017.5 0.0
25/12:00pm 26.8 26.9 13.9 45 7.7 ENE 6 11 3 6 1018.6 1017.9 0.0
25/11:30am 25.5 25.7 13.0 46 7.3 S 4 13 2 7 1018.9 1018.2 0.0
25/11:00am 25.3 24.7 13.5 48 6.9 ENE 9 15 5 8 1019.0 1018.3 0.0
25/10:30am 23.8 22.2 12.8 50 6.4 ENE 13 24 7 13 1019.2 1018.5 0.0
25/10:00am 22.1 22.1 11.2 50 6.1 ENE 2 9 1 5 1019.2 1018.5 0.0
25/09:30am 19.2 17.7 9.1 52 5.3 S 7 11 4 6 1019.4 1018.7 0.0
25/09:00am 16.9 14.8 8.1 56 4.5 S 9 13 5 7 1019.4 1018.7 0.0
25/08:30am 15.4 14.0 7.4 59 4.0 SE 4 9 2 5 1019.3 1018.6 0.0
25/08:00am 13.4 12.7 7.0 65 3.1 CALM 0 0 0 0 1019.2 1018.5 0.0
25/07:30am 11.8 11.2 7.5 75 2.1 CALM 0 0 0 0 1019.1 1018.4 0.0
25/07:00am 10.3 9.6 6.8 79 1.7 CALM 0 0 0 0 1018.8 1018.1 0.0
25/06:30am 10.5 9.6 6.1 74 2.1 CALM 0 0 0 0 1018.7 1018.0 0.0
25/06:00am 11.1 10.3 6.5 73 2.2 CALM 0 0 0 0 1018.4 1017.7 0.0
25/05:30am 11.0 10.2 6.7 75 2.0 CALM 0 0 0 0 1018.5 1017.8 0.0
25/05:00am 11.3 10.4 6.2 71 2.4 CALM 0 0 0 0 1018.4 1017.7 0.0
25/04:30am 12.1 11.3 6.6 69 2.6 CALM 0 0 0 0 1018.3 1017.6 0.0
25/04:00am 12.5 11.3 6.5 67 2.9 ENE 2 7 1 4 1018.3 1017.6 0.0
25/03:30am 14.1 13.5 7.4 64 3.3 CALM 0 0 0 0 1018.5 1017.8 0.0
25/03:00am 15.1 13.2 7.6 61 3.7 SW 7 11 4 6 1018.4 1017.7 0.0
25/02:30am 15.2 13.3 7.5 60 3.8 S 7 11 4 6 1018.7 1018.0 0.0
25/02:00am 16.1 13.5 7.6 57 4.3 S 11 15 6 8 1018.7 1018.0 0.0
25/01:30am 16.6 13.1 7.3 54 4.7 SSW 15 20 8 11 1018.9 1018.2 0.0
25/01:00am 17.4 13.1 7.2 51 5.1 SSW 19 28 10 15 1018.7 1018.0 0.0
25/12:30am 17.8 13.4 6.7 48 5.6 SW 19 26 10 14 1018.7 1018.0 0.0
25/12:00am 18.6 15.7 6.4 45 6.1 SSW 11 17 6 9 1019.0 1018.3 0.0
 
Date/Time
EDT
Temp
°C
App
Temp
°C
Dew
Point
°C
Rel
Hum
%
Delta-T
°C
Wind Press
QNH
hPa
Press
MSL
hPa
Rain since
9am
mm
Dir  Spd
km/h
Gust
km/h
Spd
kts
Gust
kts
24/11:30pm 19.5 16.2 6.3 42 6.6 SSW 13 22 7 12 1019.2 1018.5 0.0
24/11:00pm 20.4 16.9 5.6 38 7.4 SSW 13 19 7 10 1019.4 1018.7 0.0
24/10:30pm 21.1 18.4 5.5 36 7.8 SW 9 15 5 8 1019.4 1018.7 0.0
24/10:00pm 22.7 18.9 5.6 33 8.6 SW 15 22 8 12 1019.2 1018.5 0.0
24/09:30pm 23.4 19.6 5.8 32 9.0 SW 15 22 8 12 1019.0 1018.3 0.0
24/09:00pm 24.8 20.5 5.1 28 10.0 SW 17 22 9 12 1018.7 1018.0 0.0
24/08:30pm 26.1 21.4 5.1 26 10.8 SW 19 28 10 15 1018.3 1017.6 0.0
24/08:00pm 27.2 22.8 4.9 24 11.4 SW 17 26 9 14 1017.9 1017.2 0.0
24/07:30pm 28.9 24.2 5.1 22 12.4 SW 19 26 10 14 1017.5 1016.8 0.0
24/07:00pm 30.0 25.0 4.6 20 13.2 SW 20 32 11 17 1017.3 1016.6 0.0
24/06:30pm 30.9 24.8 3.0 17 14.2 SW 24 33 13 18 1017.2 1016.5 0.0
24/06:00pm 31.9 26.3 1.1 14 15.3 SW 20 33 11 18 1017.1 1016.4 0.0
24/05:30pm 32.2 26.1 0.3 13 15.6 SW 22 35 12 19 1017.1 1016.4 0.0
24/05:00pm 32.3 25.8 0.4 13 15.7 SW 24 35 13 19 1017.2 1016.5 0.0
24/04:30pm 32.6 27.4 3.5 16 15.1 SW 20 30 11 16 1017.4 1016.7 0.0
24/04:00pm 32.1 26.5 1.3 14 15.3 SW 20 35 11 19 1017.7 1017.0 0.0
24/03:30pm 32.6 27.6 3.5 16 15.1 SW 19 28 10 15 1017.9 1017.2 0.0
24/03:00pm 32.6 27.6 3.5 16 15.1 SW 19 28 10 15 1018.2 1017.5 0.0
24/02:30pm 32.5 27.6 5.1 18 14.6 SW 20 32 11 17 1018.5 1017.8 0.0
24/02:00pm 31.1 26.7 7.5 23 12.9 SW 20 30 11 16 1019.0 1018.3 0.0
24/01:30pm 30.6 26.8 7.7 24 12.6 WSW 17 30 9 16 1019.3 1018.6 0.0
24/01:00pm 30.0 26.7 9.5 28 11.5 SW 17 26 9 14 1019.8 1019.0 0.0
24/12:30pm 28.9 25.7 10.1 31 10.7 SW 17 28 9 15 1020.2 1019.4 0.0
24/12:00pm 28.9 25.5 10.6 32 10.4 SSW 19 26 10 14 1020.7 1019.9 0.0
24/11:30am 27.9 25.0 11.0 35 9.7 SW 17 26 9 14 1020.9 1020.1 0.0
24/11:00am 26.8 24.6 12.1 40 8.5 SW 15 20 8 11 1021.1 1020.3 0.0
24/10:30am 24.6 22.7 11.9 45 7.3 SW 13 19 7 10 1021.2 1020.4 0.0
24/10:00am 23.2 21.8 12.2 50 6.3 SW 11 17 6 9 1021.3 1020.5 0.0
24/09:30am 21.2 19.7 11.8 55 5.3 SW 11 15 6 8 1021.1 1020.3 0.0
24/09:00am 20.1 19.0 11.8 59 4.6 SW 9 13 5 7 1021.0 1020.2 0.0
24/08:30am 18.6 16.9 11.2 62 4.1 SW 11 15 6 8 1020.7 1019.9 0.0
24/08:00am 17.4 16.3 10.8 65 3.6 WSW 7 13 4 7 1020.6 1019.8 0.0
24/07:30am 15.5 14.8 10.1 70 2.8 W 4 9 2 5 1020.3 1019.5 0.0
24/07:00am 13.9 13.4 7.9 67 3.0 CALM 0 0 0 0 1019.7 1018.9 0.0
24/06:30am 14.5 14.2 8.5 67 3.0 CALM 0 6 0 3 1019.2 1018.5 0.0
24/06:00am 14.9 14.5 8.2 64 3.4 CALM 0 4 0 2 1018.8 1018.1 0.0
24/05:30am 15.6 15.0 7.6 59 4.0 CALM 0 0 0 0 1018.3 1017.6 0.0
24/05:00am 16.2 15.7 7.7 57 4.3 CALM 0 0 0 0 1018.2 1017.5 0.0
24/04:30am 16.4 15.9 7.9 57 4.3 CALM 0 0 0 0 1018.1 1017.4 0.0
24/04:00am 16.4 16.2 8.9 61 3.9 CALM 0 0 0 0 1018.0 1017.3 0.0
24/03:30am 17.0 16.7 8.7 58 4.3 CALM 0 0 0 0 1018.0 1017.3 0.0
24/03:00am 17.7 16.7 7.4 51 5.2 N 2 7 1 4 1017.9 1017.2 0.0
24/02:30am 18.8 18.2 7.6 48 5.7 CALM 0 0 0 0 1017.9 1017.2 0.0
24/02:00am 19.6 18.7 7.7 46 6.1 W 2 7 1 4 1018.0 1017.3 0.0
24/01:30am 19.4 19.1 8.7 50 5.6 CALM 0 0 0 0 1018.1 1017.4 0.0
24/01:00am 20.3 18.8 8.3 46 6.3 SW 6 7 3 4 1018.2 1017.5 0.0
24/12:30am 19.8 19.7 9.4 51 5.5 CALM 0 0 0 0 1018.2 1017.5 0.0
24/12:00am 20.1 20.1 9.7 51 5.6 CALM 0 6 0 3 1018.2 1017.5 0.0
 
Date/Time
EDT
Temp
°C
App
Temp
°C
Dew
Point
°C
Rel
Hum
%
Delta-T
°C
Wind Press
QNH
hPa
Press
MSL
hPa
Rain since
9am
mm
Dir  Spd
km/h
Gust
km/h
Spd
kts
Gust
kts
23/11:30pm 21.2 20.6 7.4 41 7.2 CALM 0 0 0 0 1018.2 1017.5 0.0
23/11:00pm 23.2 20.8 6.9 35 8.5 SSW 9 11 5 6 1018.1 1017.4 0.0
23/10:30pm 24.8 22.3 6.5 31 9.5 SSW 9 13 5 7 1018.0 1017.3 0.0
23/10:00pm 26.6 23.7 6.6 28 10.5 SW 11 15 6 8 1017.8 1017.1 0.0
23/09:30pm 27.8 25.3 6.6 26 11.3 WSW 9 15 5 8 1017.5 1016.8 0.0
23/09:00pm 27.5 25.2 5.7 25 11.4 SW 7 9 4 5 1017.2 1016.5 0.0
23/08:30pm 29.8 26.8 5.8 22 12.7 WSW 11 13 6 7 1016.8 1016.1 0.0
23/08:00pm 31.1 28.4 5.5 20 13.6 WSW 9 13 5 7 1016.5 1015.8 0.0
23/07:30pm 32.8 29.3 5.4 18 14.7 WSW 13 20 7 11 1016.2 1015.4 0.0
23/07:00pm 34.0 30.3 4.6 16 15.6 WSW 13 19 7 10 1016.0 1015.2 0.0
23/06:30pm 34.9 30.8 4.4 15 16.3 WSW 15 22 8 12 1015.7 1014.9 0.0
23/06:00pm 35.5 31.1 4.9 15 16.5 W 17 28 9 15 1015.6 1014.8 0.0
23/05:30pm 36.0 30.4 3.3 13 17.2 WNW 22 32 12 17 1015.5 1014.7 0.0
23/05:00pm 35.9 31.0 4.2 14 16.9 WSW 19 28 10 15 1015.5 1014.7 0.0
23/04:30pm 36.1 31.5 5.4 15 16.7 W 19 28 10 15 1015.5 1014.7 0.0
23/04:00pm 36.7 32.3 4.9 14 17.2 W 17 28 9 15 1015.7 1014.9 0.0
23/03:30pm 35.0 30.7 5.4 16 16.0 WSW 17 26 9 14 1016.0 1015.2 0.0
23/03:00pm 35.5 31.9 6.7 17 15.9 W 15 24 8 13 1016.3 1015.6 0.0
23/02:30pm 34.2 30.4 5.7 17 15.4 W 15 22 8 12 1016.6 1015.9 0.0
23/02:00pm 34.2 31.1 7.3 19 14.9 WSW 13 22 7 12 1016.8 1016.1 0.0
23/01:30pm 33.5 29.9 6.7 19 14.7 SW 15 20 8 11 1017.0 1016.3 0.0
23/01:00pm 32.2 29.1 7.1 21 13.7 WSW 13 20 7 11 1017.1 1016.4 0.0
23/12:30pm 30.6 27.8 7.1 23 12.8 SW 11 17 6 9 1017.3 1016.6 0.0
23/12:00pm 29.9 27.8 6.5 23 12.5 W 7 13 4 7 1017.5 1016.8 0.0
23/11:30am 29.0 27.5 7.0 25 11.8 ENE 4 7 2 4 1017.6 1016.9 0.0
23/11:00am 27.2 25.7 6.6 27 10.9 SW 4 9 2 5 1017.7 1017.0 0.0
23/10:30am 25.9 23.4 6.5 29 10.2 SW 9 13 5 7 1017.8 1017.1 0.0
23/10:00am 24.9 22.5 7.1 32 9.4 SW 9 15 5 8 1017.6 1016.9 0.0
23/09:30am 22.9 19.6 6.2 34 8.6 SW 13 19 7 10 1017.6 1016.9 0.0
23/09:00am 21.8 18.8 6.1 36 8.0 SW 11 15 6 8 1017.4 1016.7 0.0
23/08:30am 20.8 18.1 5.6 37 7.6 SW 9 11 5 6 1017.1 1016.4 0.0
23/08:00am 20.5 18.1 5.3 37 7.5 SW 7 11 4 6 1016.8 1016.1 0.0
23/07:30am 20.1 19.0 5.0 37 7.4 CALM 0 4 0 2 1016.5 1015.8 0.0
23/07:00am 20.7 17.4 4.7 35 7.8 WSW 11 15 6 8 1015.8 1015.0 0.0
23/06:30am 19.8 18.8 5.8 40 7.0 CALM 0 7 0 4 1015.3 1014.5 0.0
23/06:00am 20.1 19.5 7.5 44 6.5 CALM 0 6 0 3 1014.7 1013.9 0.0
23/05:30am 22.0 19.8 6.3 36 8.0 WNW 7 11 4 6 1014.5 1013.7 0.0
23/05:00am 25.3 21.8 7.0 31 9.6 WNW 15 26 8 14 1014.4 1013.6 0.0
23/04:30am 25.6 20.8 7.2 31 9.8 N 22 26 12 14 1013.1 1012.3 0.0
23/04:00am 26.3 22.0 6.9 29 10.3 N 19 24 10 13 1013.2 1012.4 0.0
23/03:30am 26.6 21.6 6.6 28 10.6 N 22 30 12 16 1013.3 1012.5 0.0
23/03:00am 26.9 22.4 6.3 27 10.8 N 19 24 10 13 1013.6 1012.8 0.0
23/02:30am 26.9 22.7 5.8 26 11.0 N 17 22 9 12 1013.7 1012.9 0.0
23/02:00am 27.2 22.3 4.9 24 11.5 N 20 26 11 14 1013.7 1012.9 0.0
23/01:30am 23.6 21.3 5.0 30 9.4 NNE 6 17 3 9 1013.9 1013.1 0.0
23/01:00am 22.6 20.8 3.2 28 9.4 SW 2 7 1 4 1014.1 1013.3 0.0
23/12:30am 21.1 18.9 5.1 35 7.9 ENE 6 9 3 5 1013.9 1013.1 0.0
23/12:00am 20.5 19.1 5.3 37 7.5 E 2 7 1 4 1013.9 1013.1 0.0
 
Date/Time
EDT
Temp
°C
App
Temp
°C
Dew
Point
°C
Rel
Hum
%
Delta-T
°C
Wind Press
QNH
hPa
Press
MSL
hPa
Rain since
9am
mm
Dir  Spd
km/h
Gust
km/h
Spd
kts
Gust
kts
22/11:30pm 21.1 19.8 4.2 33 8.2 CALM 0 0 0 0 1013.9 1013.1 0.0
22/11:00pm 23.6 22.4 4.5 29 9.5 CALM 0 0 0 0 1013.9 1013.1 0.0
22/10:30pm 22.9 21.8 4.9 31 9.0 CALM 0 0 0 0 1013.7 1012.9 0.0
22/10:00pm 22.7 20.5 5.2 32 8.8 E 6 9 3 5 1013.6 1012.8 0.0
22/09:30pm 23.9 21.9 4.3 28 9.8 ESE 4 7 2 4 1013.6 1012.8 0.0
22/09:00pm 24.7 22.6 6.0 30 9.7 ESE 6 7 3 4 1013.3 1012.5 0.0
22/08:30pm 26.3 25.5 6.4 28 10.4 CALM 0 0 0 0 1012.9 1012.1 0.0
22/08:00pm 31.4 28.4 1.7 15 14.8 NW 7 7 4 4 1012.5 1011.7 0.0
22/07:30pm 34.1 29.8 0.7 12 16.7 NNW 13 17 7 9 1012.1 1011.4 0.0
22/07:00pm 34.9 29.7 0.1 11 17.3 NNW 17 24 9 13 1011.9 1011.2 0.0
22/06:30pm 35.1 29.5 1.5 12 17.1 N 20 28 11 15 1012.1 1011.4 0.0
22/06:00pm 35.6 30.3 1.8 12 17.4 NNW 19 30 10 16 1012.2 1011.5 0.0

Other Formats:

Comma delimited format used in spreadsheet applications
http://www.bom.gov.au/fwo/IDN60801/IDN60801.95706.axf

JavaScript Object Notation format (JSON) in row-major order
http://www.bom.gov.au/fwo/IDN60801/IDN60801.95706.json